Time;durP1;ratioP1;P1;durP2;ratioP2;P2;SDS_P1;SDS_P2;PMS_P1;PMS_P2;Temp;Humidity;BMP_temperature;BMP_pressure;BME280_temperature;BME280_humidity;BME280_pressure;Samples;Min_cycle;Max_cycle;Signal;HPM_P1;HPM_P2
2023/05/19 00:03:39;;;;;;;7.60;4.15;;;;;;;;;;8382076;28;20083;-91
2023/05/19 00:07:44;;;;;;;7.00;3.95;;;;;;;;;;8400367;28;20487;-91
2023/05/19 00:11:48;;;;;;;8.77;4.00;;;;;;;;;;8401903;28;20393;-91
2023/05/19 00:15:52;;;;;;;6.53;3.85;;;;;;;;;;8402147;28;20400;-91
2023/05/19 00:19:55;;;;;;;7.18;4.15;;;;;;;;;;8401536;28;20491;-91
2023/05/19 00:23:58;;;;;;;10.57;4.40;;;;;;;;;;8401724;28;20056;-91
2023/05/19 00:28:03;;;;;;;7.43;4.18;;;;;;;;;;8401413;28;20036;-91
2023/05/19 00:32:06;;;;;;;7.60;4.53;;;;;;;;;;8401423;28;20139;-91
2023/05/19 00:36:09;;;;;;;8.07;4.55;;;;;;;;;;8401129;28;20478;-91
2023/05/19 00:40:12;;;;;;;9.20;4.25;;;;;;;;;;8401564;28;20072;-90
2023/05/19 00:44:17;;;;;;;7.30;3.95;;;;;;;;;;8401379;28;20048;-91
2023/05/19 00:48:20;;;;;;;7.20;4.10;;;;;;;;;;8400797;28;20412;-91
2023/05/19 00:52:23;;;;;;;9.80;4.35;;;;;;;;;;8400494;28;20036;-91
2023/05/19 00:56:27;;;;;;;10.55;4.65;;;;;;;;;;8400422;28;20522;-91
2023/05/19 01:00:32;;;;;;;7.78;4.22;;;;;;;;;;8401146;28;20051;-90
2023/05/19 01:04:38;;;;;;;6.22;4.15;;;;;;;;;;8401349;28;20467;-91
2023/05/19 01:08:41;;;;;;;8.68;4.63;;;;;;;;;;8400482;28;20132;-90
2023/05/19 01:12:44;;;;;;;9.68;4.10;;;;;;;;;;8400525;28;20412;-91
2023/05/19 01:17:04;;;;;;;9.85;4.88;;;;;;;;;;8392845;28;20152;-92
2023/05/19 01:21:35;;;;;;;8.77;4.68;;;;;;;;;;8376911;28;20086;-92
2023/05/19 01:26:08;;;;;;;9.90;4.70;;;;;;;;;;8396031;28;20492;-91
2023/05/19 01:30:26;;;;;;;7.30;4.53;;;;;;;;;;8403590;28;20544;-92
2023/05/19 01:34:31;;;;;;;8.52;4.53;;;;;;;;;;8387099;28;20132;-91
2023/05/19 01:38:35;;;;;;;10.13;5.07;;;;;;;;;;8385705;28;20131;-92
2023/05/19 01:42:38;;;;;;;9.25;5.22;;;;;;;;;;8374075;28;20045;-91
2023/05/19 01:46:43;;;;;;;9.02;5.45;;;;;;;;;;8371588;28;20037;-90
2023/05/19 01:50:47;;;;;;;17.30;5.68;;;;;;;;;;8380442;28;20132;-91
2023/05/19 01:54:51;;;;;;;12.40;5.43;;;;;;;;;;8414894;28;20067;-91
2023/05/19 01:59:03;;;;;;;9.15;4.82;;;;;;;;;;8406290;28;20045;-91
2023/05/19 02:03:21;;;;;;;11.77;5.68;;;;;;;;;;8399185;28;20485;-92
2023/05/19 02:07:31;;;;;;;11.75;6.15;;;;;;;;;;8414177;28;20048;-90
2023/05/19 02:11:37;;;;;;;14.18;7.13;;;;;;;;;;8383551;28;20090;-91
2023/05/19 02:15:42;;;;;;;12.52;6.45;;;;;;;;;;8393201;28;20032;-90
2023/05/19 02:19:47;;;;;;;12.60;6.90;;;;;;;;;;8385879;28;20040;-89
2023/05/19 02:23:51;;;;;;;11.93;6.22;;;;;;;;;;8398927;28;20056;-89
2023/05/19 02:27:55;;;;;;;13.50;6.57;;;;;;;;;;8397859;28;20068;-91
2023/05/19 02:31:58;;;;;;;12.10;6.45;;;;;;;;;;8399102;28;20051;-91
2023/05/19 02:36:03;;;;;;;12.35;6.72;;;;;;;;;;8398838;28;20548;-91
2023/05/19 02:40:07;;;;;;;12.73;6.72;;;;;;;;;;8370714;28;20115;-90
2023/05/19 02:44:10;;;;;;;11.50;5.85;;;;;;;;;;8396213;28;20528;-91
2023/05/19 02:48:13;;;;;;;12.75;6.53;;;;;;;;;;8398780;28;20097;-91
2023/05/19 02:52:17;;;;;;;15.27;6.55;;;;;;;;;;8398338;28;20048;-90
2023/05/19 02:56:21;;;;;;;11.73;6.63;;;;;;;;;;8398186;28;20402;-90
2023/05/19 03:00:24;;;;;;;12.45;6.35;;;;;;;;;;8398317;28;20123;-90
2023/05/19 03:04:28;;;;;;;10.70;6.05;;;;;;;;;;8398547;28;20199;-90
2023/05/19 03:08:32;;;;;;;10.02;6.13;;;;;;;;;;8398327;28;20492;-90
2023/05/19 03:12:35;;;;;;;11.82;6.03;;;;;;;;;;8398041;28;20048;-90
2023/05/19 03:16:39;;;;;;;10.88;5.95;;;;;;;;;;8398141;28;20047;-90
2023/05/19 03:20:43;;;;;;;10.18;5.80;;;;;;;;;;8398719;28;20399;-90
2023/05/19 03:24:49;;;;;;;9.98;5.85;;;;;;;;;;8398402;28;20052;-89
2023/05/19 03:28:53;;;;;;;11.10;5.78;;;;;;;;;;8398758;28;20070;-89
2023/05/19 03:32:55;;;;;;;12.20;7.00;;;;;;;;;;8398046;28;20484;-89
2023/05/19 03:36:58;;;;;;;10.55;5.78;;;;;;;;;;8397696;28;20067;-89
2023/05/19 03:41:03;;;;;;;11.82;5.60;;;;;;;;;;8399557;28;20116;-88
2023/05/19 03:45:07;;;;;;;13.73;6.50;;;;;;;;;;8398111;28;20504;-90
2023/05/19 03:49:10;;;;;;;10.90;5.95;;;;;;;;;;8397449;28;20044;-89
2023/05/19 03:53:14;;;;;;;9.88;4.78;;;;;;;;;;8400345;28;20106;-89
2023/05/19 03:57:18;;;;;;;7.72;4.85;;;;;;;;;;8396591;28;20044;-89
2023/05/19 04:01:21;;;;;;;8.95;6.05;;;;;;;;;;8397375;28;20050;-90
2023/05/19 04:05:24;;;;;;;7.03;4.93;;;;;;;;;;8396808;28;20051;-89
2023/05/19 04:09:27;;;;;;;7.43;4.80;;;;;;;;;;8396347;28;20100;-89
2023/05/19 04:13:33;;;;;;;7.80;5.15;;;;;;;;;;8396338;28;20105;-91
2023/05/19 04:17:36;;;;;;;7.32;4.32;;;;;;;;;;8396415;28;20059;-89
2023/05/19 04:21:39;;;;;;;7.43;4.28;;;;;;;;;;8396330;28;20068;-92
2023/05/19 04:25:42;;;;;;;7.68;4.32;;;;;;;;;;8396467;28;20045;-90
2023/05/19 04:29:48;;;;;;;8.00;4.88;;;;;;;;;;8396206;28;20051;-90
2023/05/19 04:33:52;;;;;;;8.65;4.40;;;;;;;;;;8396015;28;20049;-90
2023/05/19 04:37:55;;;;;;;6.20;4.10;;;;;;;;;;8395940;28;20058;-90
2023/05/19 04:41:58;;;;;;;7.43;4.38;;;;;;;;;;8379162;28;20488;-90
2023/05/19 04:46:04;;;;;;;7.38;4.30;;;;;;;;;;8390046;28;20048;-89
2023/05/19 04:50:09;;;;;;;9.40;5.72;;;;;;;;;;8387382;28;20040;-91
2023/05/19 04:54:12;;;;;;;5.70;4.18;;;;;;;;;;8385083;28;20123;-91
2023/05/19 04:58:15;;;;;;;7.32;4.07;;;;;;;;;;8402199;28;20051;-90
2023/05/19 05:02:20;;;;;;;9.30;5.22;;;;;;;;;;8402138;28;20049;-90
2023/05/19 05:06:23;;;;;;;7.78;4.72;;;;;;;;;;8401222;28;20044;-91
2023/05/19 05:10:26;;;;;;;7.30;5.03;;;;;;;;;;8401437;28;20086;-91
2023/05/19 05:14:29;;;;;;;7.20;4.70;;;;;;;;;;8401051;28;20048;-90
2023/05/19 05:18:35;;;;;;;7.78;5.80;;;;;;;;;;8400551;28;20119;-90
2023/05/19 05:22:38;;;;;;;5.95;3.72;;;;;;;;;;8400267;28;20045;-90
2023/05/19 05:26:42;;;;;;;7.72;4.60;;;;;;;;;;8400997;28;20032;-90
2023/05/19 05:30:45;;;;;;;10.15;4.78;;;;;;;;;;8379920;28;20048;-91
2023/05/19 05:34:50;;;;;;;7.75;5.20;;;;;;;;;;8388524;28;20052;-91
2023/05/19 05:38:53;;;;;;;7.55;5.78;;;;;;;;;;8376970;28;20080;-90
2023/05/19 05:42:57;;;;;;;10.07;6.00;;;;;;;;;;8376961;28;20499;-91
2023/05/19 05:47:01;;;;;;;7.90;5.35;;;;;;;;;;8376271;28;20041;-91
2023/05/19 05:51:06;;;;;;;10.70;6.63;;;;;;;;;;8399908;28;20523;-91
2023/05/19 05:55:11;;;;;;;12.68;5.55;;;;;;;;;;8399247;28;20052;-91
2023/05/19 05:59:14;;;;;;;8.27;4.97;;;;;;;;;;8386180;28;20459;-90
2023/05/19 06:03:17;;;;;;;8.88;6.63;;;;;;;;;;8398722;28;20048;-91
2023/05/19 06:07:21;;;;;;;8.85;5.30;;;;;;;;;;8386044;28;20064;-91
2023/05/19 06:11:24;;;;;;;9.90;5.93;;;;;;;;;;8384999;28;20472;-91
2023/05/19 06:15:28;;;;;;;8.15;6.07;;;;;;;;;;8395896;28;20076;-92
2023/05/19 06:19:31;;;;;;;13.00;6.60;;;;;;;;;;8385562;28;20186;-91
2023/05/19 06:23:36;;;;;;;13.57;6.35;;;;;;;;;;8394686;28;20045;-91
2023/05/19 06:27:38;;;;;;;11.18;7.03;;;;;;;;;;8397052;28;20048;-91
2023/05/19 06:31:41;;;;;;;8.98;5.35;;;;;;;;;;8398128;28;20115;-91
2023/05/19 06:35:44;;;;;;;10.32;6.15;;;;;;;;;;8397950;28;20555;-91
2023/05/19 06:39:51;;;;;;;9.45;6.32;;;;;;;;;;8397734;28;20132;-91
2023/05/19 06:43:55;;;;;;;10.57;7.45;;;;;;;;;;8398403;28;20468;-89
2023/05/19 06:47:58;;;;;;;12.18;7.07;;;;;;;;;;8398233;28;20124;-90
2023/05/19 06:52:01;;;;;;;9.95;5.90;;;;;;;;;;8397838;28;20044;-89
2023/05/19 06:56:06;;;;;;;12.98;6.80;;;;;;;;;;8397608;28;20045;-89
2023/05/19 07:00:11;;;;;;;9.65;5.55;;;;;;;;;;8397993;28;20051;-88
2023/05/19 07:04:14;;;;;;;10.10;7.45;;;;;;;;;;8397675;28;20048;-90
2023/05/19 07:08:17;;;;;;;12.27;8.18;;;;;;;;;;8397772;28;20048;-89
2023/05/19 07:12:21;;;;;;;8.40;5.93;;;;;;;;;;8397339;28;20177;-89
2023/05/19 07:16:26;;;;;;;10.02;7.13;;;;;;;;;;8396779;28;20067;-91
2023/05/19 07:20:29;;;;;;;9.45;5.80;;;;;;;;;;8397158;28;20548;-91
2023/05/19 07:24:32;;;;;;;11.77;7.70;;;;;;;;;;8397402;28;20488;-91
2023/05/19 07:28:36;;;;;;;12.65;6.45;;;;;;;;;;8396954;28;20396;-91
2023/05/19 07:32:39;;;;;;;13.18;7.25;;;;;;;;;;8396795;28;20132;-91
2023/05/19 07:36:42;;;;;;;11.57;6.75;;;;;;;;;;8393346;28;20061;-91
2023/05/19 07:40:45;;;;;;;12.77;7.43;;;;;;;;;;8396330;28;20040;-90
2023/05/19 07:44:50;;;;;;;13.00;8.60;;;;;;;;;;8396499;28;20052;-91
2023/05/19 07:48:53;;;;;;;11.13;7.47;;;;;;;;;;8394143;28;20491;-92
2023/05/19 07:52:56;;;;;;;11.98;7.75;;;;;;;;;;8396397;28;20123;-91
2023/05/19 07:56:59;;;;;;;11.88;7.20;;;;;;;;;;8395851;28;20083;-92
2023/05/19 08:01:03;;;;;;;11.68;7.82;;;;;;;;;;8396500;28;20045;-90
2023/05/19 08:05:08;;;;;;;10.60;6.97;;;;;;;;;;8395977;28;20044;-91
2023/05/19 08:09:11;;;;;;;9.40;7.43;;;;;;;;;;8396244;28;20499;-91
2023/05/19 08:13:13;;;;;;;13.52;8.90;;;;;;;;;;8396224;28;20544;-91
2023/05/19 08:17:18;;;;;;;9.65;6.93;;;;;;;;;;8395506;28;20045;-91
2023/05/19 08:21:21;;;;;;;9.38;6.28;;;;;;;;;;8396021;28;20507;-91
2023/05/19 08:25:24;;;;;;;11.02;8.25;;;;;;;;;;8395831;28;20076;-91
2023/05/19 08:29:27;;;;;;;10.23;7.03;;;;;;;;;;8401793;28;20060;-92
2023/05/19 08:33:32;;;;;;;10.05;7.00;;;;;;;;;;8402236;28;20048;-91
2023/05/19 08:37:35;;;;;;;11.07;7.65;;;;;;;;;;8401387;28;20412;-91
2023/05/19 08:41:38;;;;;;;14.10;8.20;;;;;;;;;;8401738;28;20048;-91
2023/05/19 08:45:45;;;;;;;14.23;9.25;;;;;;;;;;8401194;28;20067;-91
2023/05/19 08:49:53;;;;;;;17.83;10.55;;;;;;;;;;8401201;28;20048;-91
2023/05/19 08:54:04;;;;;;;16.73;10.27;;;;;;;;;;8400935;28;20079;-90
2023/05/19 08:58:09;;;;;;;13.70;7.67;;;;;;;;;;8383431;28;20102;-90
2023/05/19 09:02:14;;;;;;;11.38;7.82;;;;;;;;;;8400963;28;20595;-91
2023/05/19 09:06:18;;;;;;;9.90;6.40;;;;;;;;;;8401035;28;20045;-90
2023/05/19 09:10:21;;;;;;;9.25;6.15;;;;;;;;;;8383125;28;20048;-90
2023/05/19 09:14:24;;;;;;;11.02;6.70;;;;;;;;;;8400736;28;20052;-91
2023/05/19 09:18:27;;;;;;;9.35;6.82;;;;;;;;;;8400463;28;20456;-90
2023/05/19 09:22:34;;;;;;;12.85;6.78;;;;;;;;;;8400564;28;20423;-90
2023/05/19 09:26:39;;;;;;;11.15;7.55;;;;;;;;;;8400528;28;20042;-90
2023/05/19 09:30:41;;;;;;;13.77;6.43;;;;;;;;;;8348801;28;20814;-90
2023/05/19 09:34:45;;;;;;;12.55;7.78;;;;;;;;;;8382397;28;20040;-90
2023/05/19 09:38:49;;;;;;;10.88;7.35;;;;;;;;;;8399513;28;20067;-90
2023/05/19 09:42:54;;;;;;;12.00;8.18;;;;;;;;;;8399434;28;20040;-91
2023/05/19 09:46:58;;;;;;;19.20;12.85;;;;;;;;;;8399825;28;20048;-91
2023/05/19 09:51:03;;;;;;;12.18;7.82;;;;;;;;;;8399359;28;20071;-91
2023/05/19 09:55:10;;;;;;;18.70;12.02;;;;;;;;;;8399239;28;20067;-91
2023/05/19 09:59:15;;;;;;;15.95;10.10;;;;;;;;;;8398971;28;20048;-91
2023/05/19 10:03:19;;;;;;;15.45;9.43;;;;;;;;;;8400117;28;20068;-91
2023/05/19 10:07:24;;;;;;;11.60;7.90;;;;;;;;;;8399080;28;20067;-91
2023/05/19 10:11:30;;;;;;;10.73;7.53;;;;;;;;;;8399452;28;20040;-91
2023/05/19 10:15:34;;;;;;;12.68;8.50;;;;;;;;;;8398731;28;20146;-91
2023/05/19 10:19:38;;;;;;;12.95;8.00;;;;;;;;;;8398205;28;20048;-91
2023/05/19 10:23:41;;;;;;;16.83;11.15;;;;;;;;;;8398945;28;20048;-91
2023/05/19 10:27:52;;;;;;;10.88;7.30;;;;;;;;;;8398196;28;20072;-91
2023/05/19 10:31:57;;;;;;;12.00;8.10;;;;;;;;;;8398282;28;20403;-91
2023/05/19 10:36:16;;;;;;;22.48;8.30;;;;;;;;;;8397429;28;20191;-91
2023/05/19 10:40:33;;;;;;;12.35;7.65;;;;;;;;;;8397550;28;20101;-91
2023/05/19 10:45:01;;;;;;;12.43;7.55;;;;;;;;;;8397449;28;20067;-90
2023/05/19 10:49:04;;;;;;;14.13;7.90;;;;;;;;;;8396429;28;20049;-91
2023/05/19 10:53:19;;;;;;;11.07;7.03;;;;;;;;;;8397230;28;20041;-90
2023/05/19 10:57:27;;;;;;;10.07;6.47;;;;;;;;;;8396680;28;20036;-90
2023/05/19 11:01:33;;;;;;;10.93;6.55;;;;;;;;;;8397009;28;20060;-91
2023/05/19 11:05:37;;;;;;;10.20;6.78;;;;;;;;;;8396943;28;20102;-91
2023/05/19 11:09:41;;;;;;;10.45;6.03;;;;;;;;;;8396810;28;20125;-90
2023/05/19 11:13:47;;;;;;;10.55;7.40;;;;;;;;;;8396254;28;20038;-91
2023/05/19 11:17:52;;;;;;;12.00;7.00;;;;;;;;;;8396876;28;20051;-91
2023/05/19 11:22:07;;;;;;;11.23;6.40;;;;;;;;;;8396464;28;20538;-90
2023/05/19 11:26:10;;;;;;;8.90;6.28;;;;;;;;;;8396218;28;20083;-91
2023/05/19 11:30:16;;;;;;;11.80;6.40;;;;;;;;;;8396425;28;20396;-91
2023/05/19 11:34:24;;;;;;;9.63;6.38;;;;;;;;;;8395834;28;20044;-90
2023/05/19 11:38:30;;;;;;;15.07;7.47;;;;;;;;;;8395675;28;20057;-90
2023/05/19 11:42:33;;;;;;;11.13;6.45;;;;;;;;;;8395835;28;20048;-91
2023/05/19 11:46:36;;;;;;;22.05;9.98;;;;;;;;;;8396057;28;20381;-91
2023/05/19 11:50:43;;;;;;;11.43;6.22;;;;;;;;;;8396155;28;20469;-91
2023/05/19 11:54:49;;;;;;;9.23;5.80;;;;;;;;;;8395961;28;20070;-90
2023/05/19 11:58:55;;;;;;;22.50;11.93;;;;;;;;;;8395595;28;20036;-91
2023/05/19 12:02:59;;;;;;;25.25;15.50;;;;;;;;;;8401081;28;20056;-91
2023/05/19 12:07:05;;;;;;;14.73;9.23;;;;;;;;;;8402321;28;20052;-90
2023/05/19 12:11:08;;;;;;;16.08;7.20;;;;;;;;;;8402420;28;20063;-91
2023/05/19 12:15:12;;;;;;;13.15;6.15;;;;;;;;;;8402022;28;20377;-91
2023/05/19 12:19:16;;;;;;;10.02;5.97;;;;;;;;;;8402241;28;20079;-91
2023/05/19 12:23:21;;;;;;;9.35;5.57;;;;;;;;;;8367966;28;20492;-90
2023/05/19 12:27:26;;;;;;;9.60;5.85;;;;;;;;;;8401534;28;20079;-90
2023/05/19 12:31:29;;;;;;;11.30;6.10;;;;;;;;;;8401508;28;20128;-90
2023/05/19 12:35:33;;;;;;;10.50;6.68;;;;;;;;;;8401412;28;20135;-90
2023/05/19 12:39:38;;;;;;;9.30;5.97;;;;;;;;;;8401127;28;20093;-91
2023/05/19 12:43:41;;;;;;;14.05;7.97;;;;;;;;;;8383617;28;20520;-91
2023/05/19 12:47:48;;;;;;;11.70;5.78;;;;;;;;;;8401084;28;20047;-90
2023/05/19 12:51:53;;;;;;;10.30;7.00;;;;;;;;;;8401164;28;20044;-91
2023/05/19 12:55:57;;;;;;;13.40;6.43;;;;;;;;;;8400987;28;20071;-90
2023/05/19 13:00:01;;;;;;;9.10;5.65;;;;;;;;;;8403132;28;20396;-91
2023/05/19 13:04:04;;;;;;;9.45;6.20;;;;;;;;;;8402720;28;20044;-93
2023/05/19 13:08:08;;;;;;;10.23;6.10;;;;;;;;;;8389475;28;20420;-92
2023/05/19 13:12:13;;;;;;;13.15;5.88;;;;;;;;;;8401394;28;20049;-91
2023/05/19 13:16:15;;;;;;;9.80;6.10;;;;;;;;;;8402643;28;20072;-91
2023/05/19 13:20:21;;;;;;;8.65;5.82;;;;;;;;;;8389487;28;20072;-91
2023/05/19 13:24:25;;;;;;;10.35;6.45;;;;;;;;;;8402150;28;20044;-91
2023/05/19 13:28:29;;;;;;;11.25;6.05;;;;;;;;;;8388912;28;20520;-91
2023/05/19 13:32:32;;;;;;;11.50;6.30;;;;;;;;;;8388648;28;20044;-91
2023/05/19 13:36:35;;;;;;;20.52;9.15;;;;;;;;;;8388469;28;20056;-90
2023/05/19 13:40:41;;;;;;;12.93;7.40;;;;;;;;;;8401391;28;20044;-90
2023/05/19 13:44:47;;;;;;;11.20;6.72;;;;;;;;;;8400752;28;20124;-90
2023/05/19 13:48:50;;;;;;;11.75;6.70;;;;;;;;;;8401981;28;20127;-90
2023/05/19 13:52:54;;;;;;;15.07;7.78;;;;;;;;;;8401019;28;20047;-90
2023/05/19 13:56:57;;;;;;;11.02;7.43;;;;;;;;;;8401949;28;20044;-90
2023/05/19 14:01:01;;;;;;;15.73;7.78;;;;;;;;;;8407257;28;20378;-91
2023/05/19 14:05:05;;;;;;;10.75;6.65;;;;;;;;;;8410637;28;20040;-91
2023/05/19 14:09:08;;;;;;;11.02;7.07;;;;;;;;;;8340770;28;20559;-91
2023/05/19 14:13:11;;;;;;;13.13;7.60;;;;;;;;;;8399881;28;20073;-90
2023/05/19 14:17:15;;;;;;;11.90;6.90;;;;;;;;;;8399748;28;20123;-91
2023/05/19 14:21:18;;;;;;;11.75;7.35;;;;;;;;;;8399456;28;20048;-90
2023/05/19 14:25:21;;;;;;;13.98;6.90;;;;;;;;;;8398815;28;20052;-91
2023/05/19 14:29:24;;;;;;;13.65;7.28;;;;;;;;;;8399517;28;20048;-91
2023/05/19 14:33:29;;;;;;;13.20;7.93;;;;;;;;;;8399085;28;20105;-90
2023/05/19 14:37:32;;;;;;;15.45;8.35;;;;;;;;;;8399291;28;20580;-90
2023/05/19 14:41:35;;;;;;;14.00;7.75;;;;;;;;;;8398493;28;20052;-90
2023/05/19 14:45:40;;;;;;;15.45;9.13;;;;;;;;;;8398312;28;20044;-91
2023/05/19 14:49:45;;;;;;;19.10;11.45;;;;;;;;;;8398268;28;20044;-90
2023/05/19 14:53:49;;;;;;;23.60;10.68;;;;;;;;;;8397962;28;20044;-91
2023/05/19 14:57:52;;;;;;;14.43;9.90;;;;;;;;;;8398275;28;20407;-91
2023/05/19 15:01:55;;;;;;;14.85;8.20;;;;;;;;;;8398010;28;20399;-90
2023/05/19 15:06:00;;;;;;;25.00;12.75;;;;;;;;;;8397495;28;20044;-91
2023/05/19 15:10:03;;;;;;;28.98;17.02;;;;;;;;;;8398373;28;20559;-91
2023/05/19 15:14:06;;;;;;;121.88;47.72;;;;;;;;;;8397474;28;20063;-91
2023/05/19 15:18:10;;;;;;;100.45;40.50;;;;;;;;;;8397158;28;20048;-91
2023/05/19 15:22:14;;;;;;;37.13;16.25;;;;;;;;;;8397327;28;20050;-90
2023/05/19 15:26:17;;;;;;;19.88;10.82;;;;;;;;;;8397245;28;20475;-91
2023/05/19 15:30:20;;;;;;;22.50;11.27;;;;;;;;;;8396943;28;20055;-91
2023/05/19 15:34:23;;;;;;;20.95;10.77;;;;;;;;;;8394707;28;20049;-90
2023/05/19 15:38:27;;;;;;;19.42;9.80;;;;;;;;;;8386309;28;20063;-90
2023/05/19 15:42:30;;;;;;;20.08;10.35;;;;;;;;;;8397112;28;20097;-91
2023/05/19 15:46:34;;;;;;;25.65;11.40;;;;;;;;;;8397266;28;20190;-90
2023/05/19 15:50:37;;;;;;;26.13;13.68;;;;;;;;;;8396470;28;20058;-91
2023/05/19 15:54:41;;;;;;;21.40;12.25;;;;;;;;;;8396764;28;20049;-91
2023/05/19 15:58:46;;;;;;;22.38;10.80;;;;;;;;;;8397041;28;20445;-90
2023/05/19 16:02:48;;;;;;;20.63;9.93;;;;;;;;;;8396571;28;20120;-90
2023/05/19 16:06:51;;;;;;;32.20;16.02;;;;;;;;;;8396524;28;20055;-91
2023/05/19 16:10:56;;;;;;;38.13;20.60;;;;;;;;;;8397239;28;20075;-90
2023/05/19 16:14:59;;;;;;;26.05;14.10;;;;;;;;;;8396367;28;20059;-90
2023/05/19 16:19:02;;;;;;;68.13;28.88;;;;;;;;;;8396403;28;20044;-91
2023/05/19 16:23:05;;;;;;;56.00;33.88;;;;;;;;;;8381118;28;20048;-90
2023/05/19 16:27:09;;;;;;;53.97;31.95;;;;;;;;;;8385440;28;20043;-91
2023/05/19 16:31:12;;;;;;;133.85;45.65;;;;;;;;;;8396058;28;20119;-90
2023/05/19 16:35:15;;;;;;;41.10;20.75;;;;;;;;;;8396319;28;20107;-91
2023/05/19 16:39:18;;;;;;;86.78;35.58;;;;;;;;;;8395791;28;20409;-91
2023/05/19 16:43:22;;;;;;;43.22;21.50;;;;;;;;;;8396413;28;20052;-91
2023/05/19 16:47:26;;;;;;;27.02;14.95;;;;;;;;;;8397480;28;20139;-91
2023/05/19 16:51:29;;;;;;;19.80;11.27;;;;;;;;;;8401915;28;20385;-91
2023/05/19 16:55:32;;;;;;;17.35;9.82;;;;;;;;;;8402519;28;20427;-90
2023/05/19 16:59:36;;;;;;;36.40;21.55;;;;;;;;;;8401024;28;20047;-90
2023/05/19 17:03:39;;;;;;;20.05;10.15;;;;;;;;;;8397083;28;20076;-90
2023/05/19 17:07:42;;;;;;;23.40;11.95;;;;;;;;;;8391155;28;20120;-91
2023/05/19 17:11:45;;;;;;;19.48;10.40;;;;;;;;;;8390893;28;20044;-91
2023/05/19 17:15:52;;;;;;;17.48;10.25;;;;;;;;;;8385356;28;20123;-90
2023/05/19 17:19:56;;;;;;;48.88;22.92;;;;;;;;;;8393439;28;20056;-90
2023/05/19 17:24:00;;;;;;;24.92;11.32;;;;;;;;;;8398360;28;20044;-90
2023/05/19 17:28:03;;;;;;;17.45;11.35;;;;;;;;;;8378720;28;20064;-90
2023/05/19 17:32:08;;;;;;;24.35;11.80;;;;;;;;;;8397022;28;20141;-90
2023/05/19 17:36:11;;;;;;;22.33;12.38;;;;;;;;;;8393192;28;20085;-91
2023/05/19 17:40:17;;;;;;;57.78;25.73;;;;;;;;;;8399438;28;20590;-95
2023/05/19 17:44:21;;;;;;;18.65;11.20;;;;;;;;;;8370408;28;20086;-94
2023/05/19 17:48:25;;;;;;;16.90;10.73;;;;;;;;;;8393950;28;20064;-91
2023/05/19 17:52:29;;;;;;;31.38;16.65;;;;;;;;;;8397590;28;20464;-91
2023/05/19 17:56:34;;;;;;;32.33;17.85;;;;;;;;;;8397413;28;20050;-94
2023/05/19 18:00:37;;;;;;;20.52;11.40;;;;;;;;;;8397070;28;20044;-93
2023/05/19 18:04:43;;;;;;;23.85;12.40;;;;;;;;;;8399364;28;20549;-93
2023/05/19 18:08:49;;;;;;;182.23;64.78;;;;;;;;;;8373791;28;20060;-93
2023/05/19 18:12:52;;;;;;;24.13;13.70;;;;;;;;;;8399366;28;20458;-93
2023/05/19 18:16:55;;;;;;;17.35;10.90;;;;;;;;;;8399099;28;20048;-92
2023/05/19 18:20:59;;;;;;;25.83;13.30;;;;;;;;;;8398247;28;20044;-92
2023/05/19 18:25:02;;;;;;;38.83;20.27;;;;;;;;;;8393421;28;20041;-91
2023/05/19 18:29:05;;;;;;;26.90;14.68;;;;;;;;;;8375595;28;20041;-94
2023/05/19 18:33:09;;;;;;;23.63;13.15;;;;;;;;;;8394155;28;20045;-92
2023/05/19 18:37:32;;;;;;;27.45;16.40;;;;;;;;;;8383868;28;20170;-93
2023/05/19 18:41:36;;;;;;;29.52;20.88;;;;;;;;;;8386654;28;20501;-91
2023/05/19 18:45:40;;;;;;;24.55;12.38;;;;;;;;;;8367354;28;20049;-93
2023/05/19 18:49:43;;;;;;;30.63;16.45;;;;;;;;;;8375017;28;20495;-92
2023/05/19 18:53:50;;;;;;;26.95;14.60;;;;;;;;;;8388242;28;20044;-92
2023/05/19 18:57:54;;;;;;;34.05;17.00;;;;;;;;;;8393663;28;20510;-92
2023/05/19 19:01:57;;;;;;;30.67;18.40;;;;;;;;;;8373056;28;20045;-91
2023/05/19 19:06:01;;;;;;;30.15;17.48;;;;;;;;;;8393335;28;20090;-89
2023/05/19 19:10:06;;;;;;;32.70;17.23;;;;;;;;;;8386137;28;20037;-90
2023/05/19 19:14:09;;;;;;;32.60;16.83;;;;;;;;;;8351394;28;20056;-93
2023/05/19 19:18:12;;;;;;;35.50;18.90;;;;;;;;;;8393443;28;20119;-90
2023/05/19 19:22:15;;;;;;;34.17;18.48;;;;;;;;;;8379197;28;20048;-90
2023/05/19 19:26:19;;;;;;;33.05;18.20;;;;;;;;;;8378782;28;20101;-91
2023/05/19 19:30:23;;;;;;;30.60;17.65;;;;;;;;;;8396492;28;20043;-91
2023/05/19 19:34:26;;;;;;;28.05;18.55;;;;;;;;;;8396074;28;20106;-90
2023/05/19 19:38:29;;;;;;;26.98;14.95;;;;;;;;;;8388623;28;20102;-91
2023/05/19 19:42:34;;;;;;;22.50;13.88;;;;;;;;;;8394333;28;20036;-92
2023/05/19 19:46:36;;;;;;;25.17;14.15;;;;;;;;;;8396003;28;20123;-90
2023/05/19 19:50:40;;;;;;;31.73;19.35;;;;;;;;;;8383510;28;20060;-92
2023/05/19 19:54:42;;;;;;;32.33;19.52;;;;;;;;;;8378182;28;20492;-91
2023/05/19 19:58:46;;;;;;;28.52;17.17;;;;;;;;;;8388321;28;20082;-91
2023/05/19 20:02:50;;;;;;;26.88;16.23;;;;;;;;;;8395951;28;20037;-91
2023/05/19 20:06:54;;;;;;;24.38;15.93;;;;;;;;;;8395637;28;20527;-91
2023/05/19 20:10:57;;;;;;;23.08;13.60;;;;;;;;;;8395295;28;20051;-92
2023/05/19 20:15:01;;;;;;;29.13;17.23;;;;;;;;;;8395493;28;20127;-91
2023/05/19 20:19:04;;;;;;;24.75;16.40;;;;;;;;;;8395231;28;20047;-91
2023/05/19 20:23:08;;;;;;;78.43;29.10;;;;;;;;;;8398794;28;20392;-91
2023/05/19 20:27:11;;;;;;;26.05;15.98;;;;;;;;;;8401883;28;20127;-91
2023/05/19 20:31:15;;;;;;;36.00;25.08;;;;;;;;;;8392948;28;20048;-91
2023/05/19 20:35:18;;;;;;;126.28;36.13;;;;;;;;;;8401172;28;20393;-91
2023/05/19 20:39:21;;;;;;;38.22;18.83;;;;;;;;;;8399257;28;20476;-91
2023/05/19 20:43:24;;;;;;;18.58;11.35;;;;;;;;;;8390201;28;20072;-91
2023/05/19 20:47:29;;;;;;;25.10;12.95;;;;;;;;;;8401165;28;20123;-91
2023/05/19 20:51:32;;;;;;;33.78;15.82;;;;;;;;;;8397990;28;20487;-91
2023/05/19 20:55:35;;;;;;;32.40;14.82;;;;;;;;;;8400890;28;20048;-90
2023/05/19 20:59:38;;;;;;;25.70;13.38;;;;;;;;;;8392070;28;20041;-92
2023/05/19 21:03:42;;;;;;;33.10;13.73;;;;;;;;;;8397165;28;20076;-92
2023/05/19 21:07:45;;;;;;;20.40;12.50;;;;;;;;;;8400643;28;20178;-92
2023/05/19 21:11:48;;;;;;;44.40;19.92;;;;;;;;;;8400394;28;20123;-91
2023/05/19 21:15:51;;;;;;;40.53;20.67;;;;;;;;;;8400193;28;20468;-90
2023/05/19 21:19:58;;;;;;;31.17;16.45;;;;;;;;;;8400137;28;20484;-91
2023/05/19 21:24:01;;;;;;;33.67;20.90;;;;;;;;;;8399747;28;20049;-91
2023/05/19 21:28:04;;;;;;;28.77;18.88;;;;;;;;;;8399682;28;20123;-91
2023/05/19 21:32:08;;;;;;;24.88;17.50;;;;;;;;;;8399510;28;20448;-91
2023/05/19 21:36:12;;;;;;;26.33;16.58;;;;;;;;;;8398621;28;20053;-91
2023/05/19 21:40:15;;;;;;;22.95;13.52;;;;;;;;;;8399302;28;20488;-92
2023/05/19 21:44:18;;;;;;;23.73;13.57;;;;;;;;;;8391212;28;20041;-91
2023/05/19 21:48:21;;;;;;;20.33;12.45;;;;;;;;;;8399266;28;20055;-91
2023/05/19 21:52:26;;;;;;;20.73;12.90;;;;;;;;;;8395689;28;20048;-91
2023/05/19 21:56:29;;;;;;;22.05;13.93;;;;;;;;;;8389962;28;20552;-91
2023/05/19 22:00:32;;;;;;;23.75;13.32;;;;;;;;;;8398932;28;20047;-92
2023/05/19 22:04:35;;;;;;;23.30;14.23;;;;;;;;;;8398854;28;20859;-91
2023/05/19 22:08:40;;;;;;;24.75;15.48;;;;;;;;;;8398706;28;20043;-91
2023/05/19 22:12:43;;;;;;;27.80;15.18;;;;;;;;;;8398473;28;20123;-91
2023/05/19 22:16:46;;;;;;;27.40;15.40;;;;;;;;;;8398204;28;20040;-91
2023/05/19 22:20:49;;;;;;;23.80;14.18;;;;;;;;;;8397984;28;20131;-91
2023/05/19 22:24:53;;;;;;;24.10;14.35;;;;;;;;;;8379940;28;20048;-91
2023/05/19 22:28:56;;;;;;;23.92;15.00;;;;;;;;;;8397940;28;20045;-91
2023/05/19 22:32:59;;;;;;;41.47;15.93;;;;;;;;;;8397615;28;20090;-91
2023/05/19 22:37:01;;;;;;;26.52;14.57;;;;;;;;;;8397527;28;20061;-91
2023/05/19 22:41:06;;;;;;;22.05;14.07;;;;;;;;;;8383565;28;20527;-93
2023/05/19 22:45:10;;;;;;;23.45;13.63;;;;;;;;;;8386772;28;20070;-90
2023/05/19 22:49:13;;;;;;;23.27;13.98;;;;;;;;;;8392770;28;20123;-90
2023/05/19 22:53:16;;;;;;;22.05;13.13;;;;;;;;;;8396404;28;20702;-89
2023/05/19 22:57:20;;;;;;;19.70;14.15;;;;;;;;;;8392037;28;20439;-91
2023/05/19 23:01:23;;;;;;;25.33;14.82;;;;;;;;;;8396564;28;20041;-90
2023/05/19 23:05:26;;;;;;;25.23;15.88;;;;;;;;;;8396878;28;20487;-93
2023/05/19 23:09:29;;;;;;;25.80;15.52;;;;;;;;;;8396736;28;20040;-93
2023/05/19 23:13:34;;;;;;;21.98;14.57;;;;;;;;;;8396336;28;20484;-90
2023/05/19 23:17:37;;;;;;;22.52;15.15;;;;;;;;;;8396712;28;20052;-90
2023/05/19 23:21:40;;;;;;;23.52;14.95;;;;;;;;;;8391641;28;20061;-90
2023/05/19 23:25:43;;;;;;;20.63;13.23;;;;;;;;;;8394620;28;20059;-90
2023/05/19 23:29:49;;;;;;;23.10;13.82;;;;;;;;;;8396012;28;20132;-90
2023/05/19 23:33:52;;;;;;;21.27;13.43;;;;;;;;;;8396013;28;20044;-91
2023/05/19 23:37:55;;;;;;;25.23;15.88;;;;;;;;;;8395639;28;20052;-90
2023/05/19 23:41:58;;;;;;;24.13;15.90;;;;;;;;;;8395954;28;20048;-91
2023/05/19 23:46:02;;;;;;;24.02;15.68;;;;;;;;;;8395662;28;20189;-91
2023/05/19 23:50:05;;;;;;;26.27;15.35;;;;;;;;;;8395715;28;20040;-91
2023/05/19 23:54:08;;;;;;;25.90;15.70;;;;;;;;;;8385606;28;20040;-90
2023/05/19 23:58:11;;;;;;;23.80;15.50;;;;;;;;;;8394507;28;20103;-90
